createdAt,value
2023-03-16T00:00:45.972Z,56.20
2023-03-16T00:04:48.479Z,56.50
2023-03-16T00:08:51.171Z,56.60
2023-03-16T00:12:54.295Z,56.90
2023-03-16T00:16:56.859Z,57.10
2023-03-16T00:21:02.235Z,57.20
2023-03-16T00:25:05.136Z,57.50
2023-03-16T00:29:07.857Z,57.70
2023-03-16T00:33:12.066Z,57.90
2023-03-16T00:37:16.980Z,58.10
2023-03-16T00:41:19.654Z,59.00
2023-03-16T00:45:24.015Z,59.10
2023-03-16T00:49:27.739Z,59.30
2023-03-16T00:53:31.429Z,59.70
2023-03-16T00:57:34.315Z,60.10
2023-03-16T01:01:37.040Z,61.00
2023-03-16T01:05:40.462Z,60.90
2023-03-16T01:09:43.431Z,61.00
2023-03-16T01:13:47.557Z,61.10
2023-03-16T01:17:50.327Z,61.30
2023-03-16T01:21:53.609Z,61.80
2023-03-16T01:25:57.144Z,61.70
2023-03-16T01:30:00.191Z,61.80
2023-03-16T01:34:04.233Z,61.80
2023-03-16T01:38:08.099Z,61.70
2023-03-16T01:42:10.955Z,61.60
2023-03-16T01:46:19.586Z,61.40
2023-03-16T01:50:24.236Z,61.30
2023-03-16T01:54:31.624Z,61.50
2023-03-16T01:58:35.555Z,61.70
2023-03-16T02:02:39.858Z,61.70
2023-03-16T02:06:43.096Z,61.70
2023-03-16T02:10:46.044Z,61.80
2023-03-16T02:14:50.713Z,62.10
2023-03-16T02:18:54.410Z,62.00
2023-03-16T02:22:58.095Z,62.10
2023-03-16T02:27:10.461Z,62.50
2023-03-16T02:31:18.721Z,63.40
2023-03-16T02:35:22.737Z,64.10
2023-03-16T02:39:26.242Z,64.10
2023-03-16T02:43:33.407Z,64.40
2023-03-16T02:47:48.080Z,64.90
2023-03-16T02:51:51.677Z,65.90
2023-03-16T02:55:54.831Z,66.30
2023-03-16T02:59:57.607Z,66.80
2023-03-16T03:04:00.513Z,67.20
2023-03-16T03:08:03.481Z,67.50
2023-03-16T03:12:06.642Z,67.70
2023-03-16T03:16:09.660Z,67.50
2023-03-16T03:20:20.212Z,67.20
2023-03-16T03:24:23.245Z,66.80
2023-03-16T03:28:25.986Z,66.50
2023-03-16T03:32:28.792Z,66.20
2023-03-16T03:36:31.771Z,66.10
2023-03-16T03:40:36.568Z,66.00
2023-03-16T03:44:40.117Z,66.30
2023-03-16T03:48:43.010Z,66.50
2023-03-16T03:52:46.032Z,66.40
2023-03-16T03:56:48.607Z,66.40
2023-03-16T04:00:52.607Z,66.80
2023-03-16T04:04:55.814Z,67.30
2023-03-16T04:08:58.630Z,67.30
2023-03-16T04:13:02.961Z,67.60
2023-03-16T04:17:08.787Z,67.40
2023-03-16T04:21:18.083Z,67.80
2023-03-16T04:25:22.885Z,67.50
2023-03-16T04:29:25.591Z,67.40
2023-03-16T04:33:29.124Z,67.40
2023-03-16T04:37:32.445Z,67.30
2023-03-16T04:41:35.405Z,67.60
2023-03-16T04:45:46.314Z,67.70
2023-03-16T04:49:49.011Z,68.00
2023-03-16T04:53:52.447Z,68.00
2023-03-16T04:58:03.272Z,68.00
2023-03-16T05:02:09.739Z,68.00
2023-03-16T05:06:13.413Z,68.00
2023-03-16T05:10:18.924Z,67.80
2023-03-16T05:14:22.818Z,68.00
2023-03-16T05:18:45.542Z,67.90
2023-03-16T05:22:50.998Z,68.00
2023-03-16T05:26:59.131Z,67.80
2023-03-16T05:31:03.877Z,67.70
2023-03-16T05:35:13.760Z,67.60
2023-03-16T05:39:17.002Z,67.50
2023-03-16T05:43:23.266Z,67.40
2023-03-16T05:47:28.782Z,67.20
2023-03-16T05:51:36.693Z,66.90
2023-03-16T05:55:41.928Z,66.50
2023-03-16T05:59:48.774Z,66.10
2023-03-16T06:03:54.815Z,66.00
2023-03-16T06:08:02.786Z,65.90
2023-03-16T06:12:06.054Z,65.50
2023-03-16T06:16:11.676Z,65.40
2023-03-16T06:20:14.892Z,65.30
2023-03-16T06:24:19.595Z,65.20
2023-03-16T06:28:22.711Z,64.80
2023-03-16T06:32:25.945Z,64.60
2023-03-16T06:36:29.876Z,64.30
2023-03-16T06:40:37.890Z,64.20
2023-03-16T06:44:42.714Z,63.80
2023-03-16T06:48:48.662Z,63.60
2023-03-16T06:52:51.721Z,63.50
2023-03-16T06:56:56.915Z,63.30
2023-03-16T07:01:01.588Z,62.80
2023-03-16T07:05:04.982Z,62.30
2023-03-16T07:09:07.742Z,62.00
2023-03-16T07:13:11.469Z,61.30
2023-03-16T07:17:14.172Z,60.40
2023-03-16T07:21:16.882Z,60.30
2023-03-16T07:25:21.457Z,60.20
2023-03-16T07:29:29.031Z,60.00
2023-03-16T07:33:33.631Z,59.70
2023-03-16T07:37:40.068Z,58.80
2023-03-16T07:41:44.080Z,57.90
2023-03-16T07:45:52.469Z,57.90
2023-03-16T07:49:55.854Z,57.80
2023-03-16T07:53:59.485Z,57.40
2023-03-16T07:58:06.324Z,56.50
2023-03-16T08:02:16.256Z,54.30
2023-03-16T08:06:37.904Z,53.20
2023-03-16T08:10:41.666Z,52.30
2023-03-16T08:14:51.516Z,52.00
2023-03-16T08:19:01.336Z,50.90
2023-03-16T08:23:04.576Z,50.80
2023-03-16T08:27:13.803Z,51.30
2023-03-16T08:31:21.211Z,49.20
2023-03-16T08:35:32.978Z,48.60
2023-03-16T08:39:35.777Z,48.80
2023-03-16T08:43:42.492Z,47.50
2023-03-16T08:47:46.084Z,46.90
2023-03-16T08:51:51.213Z,45.70
2023-03-16T08:56:01.014Z,44.90
2023-03-16T09:00:12.721Z,44.20
2023-03-16T09:04:15.326Z,43.60
2023-03-16T09:08:18.494Z,43.70
2023-03-16T09:12:22.376Z,43.20
2023-03-16T09:16:25.889Z,42.20
2023-03-16T09:20:30.041Z,42.40
2023-03-16T09:24:32.917Z,42.30
2023-03-16T09:28:36.160Z,42.50
2023-03-16T09:32:38.759Z,42.70
2023-03-16T09:36:42.179Z,42.10
2023-03-16T09:40:47.137Z,42.00
2023-03-16T09:44:50.144Z,41.30
2023-03-16T09:48:54.176Z,42.00
2023-03-16T09:53:15.491Z,41.80
2023-03-16T09:57:36.145Z,41.50
2023-03-16T10:01:54.089Z,41.80
2023-03-16T10:06:01.026Z,38.30
2023-03-16T10:10:15.956Z,38.40
2023-03-16T10:14:30.888Z,37.00
2023-03-16T10:18:39.347Z,38.50
2023-03-16T10:22:46.902Z,38.80
2023-03-16T10:26:54.526Z,39.20
2023-03-16T10:30:59.146Z,38.40
2023-03-16T10:35:16.915Z,37.80
2023-03-16T10:39:19.993Z,38.50
2023-03-16T10:43:22.842Z,38.40
2023-03-16T10:47:28.815Z,38.00
2023-03-16T10:51:33.562Z,36.60
2023-03-16T10:55:41.944Z,37.30
2023-03-16T10:59:48.839Z,37.10
2023-03-16T11:03:53.228Z,37.60
2023-03-16T11:08:00.461Z,37.40
2023-03-16T11:12:24.211Z,37.10
2023-03-16T11:16:39.364Z,37.60
2023-03-16T11:20:42.107Z,36.70
2023-03-16T11:24:53.900Z,37.00
2023-03-16T11:29:09.493Z,37.10
2023-03-16T11:33:14.135Z,37.00
2023-03-16T11:37:43.499Z,37.10
2023-03-16T11:41:46.330Z,37.10
2023-03-16T11:45:58.232Z,37.40
2023-03-16T11:50:11.617Z,37.60
2023-03-16T11:54:14.201Z,37.00
2023-03-16T11:58:17.245Z,37.40
2023-03-16T12:02:29.638Z,37.20
2023-03-16T12:06:32.204Z,36.90
2023-03-16T12:10:41.945Z,37.00
2023-03-16T12:14:52.609Z,37.40
2023-03-16T12:19:16.962Z,36.90
2023-03-16T12:23:32.285Z,35.90
2023-03-16T12:27:37.719Z,36.50
2023-03-16T12:32:03.766Z,36.20
2023-03-16T12:36:09.612Z,36.10
2023-03-16T12:40:22.402Z,36.40
2023-03-16T12:44:25.103Z,36.70
2023-03-16T12:48:30.252Z,36.70
2023-03-16T12:52:43.306Z,35.30
2023-03-16T12:56:47.049Z,35.60
2023-03-16T13:00:56.939Z,35.40
2023-03-16T13:05:00.839Z,35.80
2023-03-16T13:09:04.812Z,35.80
2023-03-16T13:13:13.045Z,35.20
2023-03-16T13:17:15.791Z,34.40
2023-03-16T13:21:20.458Z,34.90
2023-03-16T13:25:25.856Z,35.20
2023-03-16T13:29:29.198Z,35.60
2023-03-16T13:33:33.155Z,35.70
2023-03-16T13:37:35.811Z,36.00
2023-03-16T13:41:38.480Z,36.10
2023-03-16T13:45:41.526Z,35.80
2023-03-16T13:49:54.370Z,36.00
2023-03-16T13:53:57.000Z,35.80
2023-03-16T13:57:59.828Z,36.10
2023-03-16T14:02:02.418Z,36.30
2023-03-16T14:06:05.875Z,36.20
2023-03-16T14:10:11.193Z,35.70
2023-03-16T14:14:17.493Z,33.70
2023-03-16T14:18:22.946Z,34.40
2023-03-16T14:22:29.515Z,34.10
2023-03-16T14:26:42.130Z,34.60
2023-03-16T14:30:51.949Z,34.40
2023-03-16T14:35:01.586Z,35.00
2023-03-16T14:39:19.503Z,34.80
2023-03-16T14:43:27.033Z,34.60
2023-03-16T14:47:31.049Z,34.60
2023-03-16T14:51:34.650Z,34.50
2023-03-16T14:55:37.905Z,34.90
2023-03-16T14:59:40.636Z,34.90
2023-03-16T15:03:43.792Z,34.00
2023-03-16T15:07:46.989Z,32.80
2023-03-16T15:11:49.608Z,33.60
2023-03-16T15:15:52.476Z,33.90
2023-03-16T15:19:55.068Z,33.70
2023-03-16T15:24:00.454Z,33.70
2023-03-16T15:28:05.498Z,33.80
2023-03-16T15:32:12.738Z,34.00
2023-03-16T15:36:16.979Z,34.20
2023-03-16T15:40:23.939Z,34.60
2023-03-16T15:44:27.157Z,33.60
2023-03-16T15:48:29.873Z,34.00
2023-03-16T15:52:34.116Z,34.00
2023-03-16T15:56:52.717Z,33.10
2023-03-16T16:00:57.790Z,32.60
2023-03-16T16:05:00.816Z,33.50
2023-03-16T16:09:03.609Z,34.00
2023-03-16T16:13:07.196Z,34.10
2023-03-16T16:17:15.788Z,34.30
2023-03-16T16:21:24.594Z,34.10
2023-03-16T16:25:29.969Z,34.40
2023-03-16T16:29:33.888Z,34.00
2023-03-16T16:33:37.316Z,34.00
2023-03-16T16:37:39.825Z,34.10
2023-03-16T16:41:42.707Z,34.40
2023-03-16T16:45:45.600Z,34.50
2023-03-16T16:49:49.504Z,35.00
2023-03-16T16:53:53.150Z,34.70
2023-03-16T16:57:56.113Z,34.60
2023-03-16T17:02:00.481Z,34.20
2023-03-16T17:06:03.064Z,33.70
2023-03-16T17:10:06.300Z,33.70
2023-03-16T17:14:09.401Z,34.10
2023-03-16T17:18:13.331Z,34.30
2023-03-16T17:22:21.892Z,34.40
2023-03-16T17:26:26.186Z,34.70
2023-03-16T17:30:29.946Z,35.10
2023-03-16T17:34:32.996Z,35.40
2023-03-16T17:38:35.951Z,35.90
2023-03-16T17:42:38.412Z,36.60
2023-03-16T17:46:41.422Z,37.00
2023-03-16T17:50:46.164Z,37.40
2023-03-16T17:54:49.818Z,37.80
2023-03-16T17:58:53.360Z,38.10
2023-03-16T18:02:59.879Z,38.40
2023-03-16T18:07:03.099Z,38.80
2023-03-16T18:11:08.098Z,39.00
2023-03-16T18:15:16.507Z,39.20
2023-03-16T18:19:25.295Z,39.30
2023-03-16T18:23:29.868Z,39.40
2023-03-16T18:27:32.862Z,39.50
2023-03-16T18:31:35.652Z,39.70
2023-03-16T18:35:38.578Z,39.70
2023-03-16T18:39:41.178Z,39.70
2023-03-16T18:43:44.369Z,39.70
2023-03-16T18:47:52.062Z,39.70
2023-03-16T18:51:55.107Z,39.80
2023-03-16T18:55:57.865Z,39.70
2023-03-16T19:00:00.711Z,39.60
2023-03-16T19:04:04.080Z,39.50
2023-03-16T19:08:06.917Z,39.50
2023-03-16T19:12:15.874Z,39.60
2023-03-16T19:16:19.107Z,39.70
2023-03-16T19:20:23.556Z,39.90
2023-03-16T19:24:32.120Z,40.00
2023-03-16T19:28:37.254Z,40.20
2023-03-16T19:32:39.822Z,40.40
2023-03-16T19:36:42.418Z,40.50
2023-03-16T19:40:46.192Z,40.60
2023-03-16T19:44:50.367Z,40.70
2023-03-16T19:48:53.006Z,40.80
2023-03-16T19:52:58.123Z,41.00
2023-03-16T19:57:07.488Z,41.10
2023-03-16T20:01:16.605Z,41.20
2023-03-16T20:05:21.164Z,41.10
2023-03-16T20:09:23.815Z,41.20
2023-03-16T20:13:26.344Z,41.40
2023-03-16T20:17:30.197Z,41.50
2023-03-16T20:21:32.806Z,41.60
2023-03-16T20:25:36.145Z,41.80
2023-03-16T20:29:38.831Z,41.70
2023-03-16T20:33:41.555Z,41.70
2023-03-16T20:37:46.572Z,41.80
2023-03-16T20:41:49.446Z,41.90
2023-03-16T20:45:54.550Z,42.00
2023-03-16T20:49:57.579Z,42.20
2023-03-16T20:54:00.114Z,42.30
2023-03-16T20:58:03.123Z,42.40
2023-03-16T21:02:19.500Z,42.60
2023-03-16T21:06:23.651Z,42.70
2023-03-16T21:10:28.100Z,42.90
2023-03-16T21:14:32.401Z,43.00
2023-03-16T21:18:34.936Z,43.10
2023-03-16T21:22:37.475Z,43.20
2023-03-16T21:26:41.336Z,43.30
2023-03-16T21:30:45.500Z,43.40
2023-03-16T21:34:49.286Z,43.60
2023-03-16T21:38:52.871Z,43.60
2023-03-16T21:42:55.764Z,43.70
2023-03-16T21:46:58.648Z,43.80
2023-03-16T21:51:01.804Z,43.80
2023-03-16T21:55:06.396Z,43.90
2023-03-16T21:59:09.308Z,43.90
2023-03-16T22:03:24.962Z,43.70
2023-03-16T22:07:27.510Z,43.60
2023-03-16T22:11:30.830Z,43.50
2023-03-16T22:15:33.583Z,43.50
2023-03-16T22:19:36.809Z,43.50
2023-03-16T22:23:39.666Z,43.60
2023-03-16T22:27:42.302Z,43.50
2023-03-16T22:31:46.753Z,43.40
2023-03-16T22:35:49.803Z,43.30
2023-03-16T22:39:53.055Z,43.30
2023-03-16T22:43:55.976Z,43.30
2023-03-16T22:48:00.225Z,43.20
2023-03-16T22:52:02.808Z,43.30
2023-03-16T22:56:05.845Z,43.40
2023-03-16T23:00:11.796Z,43.60
2023-03-16T23:04:14.456Z,44.00
2023-03-16T23:12:21.121Z,44.00
2023-03-16T23:16:28.541Z,44.50
2023-03-16T23:20:32.013Z,44.70
2023-03-16T23:24:35.430Z,44.40
2023-03-16T23:28:37.960Z,44.30
2023-03-16T23:32:40.509Z,43.80
2023-03-16T23:36:43.483Z,43.60
2023-03-16T23:40:46.557Z,43.40
2023-03-16T23:44:49.100Z,43.40
2023-03-16T23:48:53.433Z,42.70
2023-03-16T23:52:56.598Z,42.60
2023-03-16T23:56:59.193Z,42.30
